Ethel, Mississippi
Current Conditions -  °F | °C
As of 2:15 PM on Friday 28 Nov 2014 (Local Time) from KSTF Reporting Station
Clear Clear  
Wind Chill: 54°   Ceiling: Unl
Heat Index: 54°   Visibility: NA
Dew Point: 28°   Wind: 6mph
Humidity: 38%   Direction: 140°SE
Pressure: 30.28"   Gusts: NA
Location:  33.12°N, 89.47°W
Report Text: KSTF 282015Z AUTO 14005KT CLR 12/M02 A3028 RMK AO2 PWINO
Loading
Personal Weather Stations






























Interactive Weather Map New forecast layout! Learn more

10-Day Weather Forecast

Advertisements
Track Severe Weather on mobile